sensor_id;sensor_type;location;lat;lon;timestamp;P1;durP1;ratioP1;P2;durP2;ratioP2
39256;SDS011;67272;48.066;11.038;2023-02-18T00:02:17;2.80;;;2.60;;
39256;SDS011;67272;48.066;11.038;2023-02-18T00:04:43;3.33;;;2.43;;
39256;SDS011;67272;48.066;11.038;2023-02-18T00:07:13;3.15;;;2.85;;
39256;SDS011;67272;48.066;11.038;2023-02-18T00:09:39;3.43;;;2.93;;
39256;SDS011;67272;48.066;11.038;2023-02-18T00:12:05;3.30;;;2.97;;
39256;SDS011;67272;48.066;11.038;2023-02-18T00:14:31;3.23;;;2.83;;
39256;SDS011;67272;48.066;11.038;2023-02-18T00:16:57;2.83;;;2.50;;
39256;SDS011;67272;48.066;11.038;2023-02-18T00:19:23;2.83;;;2.50;;
39256;SDS011;67272;48.066;11.038;2023-02-18T00:21:52;3.13;;;2.83;;
39256;SDS011;67272;48.066;11.038;2023-02-18T00:24:18;3.63;;;2.67;;
39256;SDS011;67272;48.066;11.038;2023-02-18T00:26:50;3.73;;;2.60;;
39256;SDS011;67272;48.066;11.038;2023-02-18T00:29:17;3.00;;;2.80;;
39256;SDS011;67272;48.066;11.038;2023-02-18T00:31:47;3.13;;;2.80;;
39256;SDS011;67272;48.066;11.038;2023-02-18T00:34:13;3.20;;;2.90;;
39256;SDS011;67272;48.066;11.038;2023-02-18T00:36:39;3.23;;;2.83;;
39256;SDS011;67272;48.066;11.038;2023-02-18T00:39:06;2.70;;;2.50;;
39256;SDS011;67272;48.066;11.038;2023-02-18T00:41:33;2.90;;;2.60;;
39256;SDS011;67272;48.066;11.038;2023-02-18T00:43:59;3.50;;;2.70;;
39256;SDS011;67272;48.066;11.038;2023-02-18T00:46:25;3.72;;;2.90;;
39256;SDS011;67272;48.066;11.038;2023-02-18T00:48:52;2.95;;;2.65;;
39256;SDS011;67272;48.066;11.038;2023-02-18T00:51:19;3.63;;;3.33;;
39256;SDS011;67272;48.066;11.038;2023-02-18T00:53:48;3.28;;;2.90;;
39256;SDS011;67272;48.066;11.038;2023-02-18T00:56:14;2.97;;;2.77;;
39256;SDS011;67272;48.066;11.038;2023-02-18T00:58:40;3.25;;;2.95;;
39256;SDS011;67272;48.066;11.038;2023-02-18T01:01:08;3.42;;;2.97;;
39256;SDS011;67272;48.066;11.038;2023-02-18T01:03:35;4.20;;;3.30;;
39256;SDS011;67272;48.066;11.038;2023-02-18T01:06:02;3.43;;;3.13;;
39256;SDS011;67272;48.066;11.038;2023-02-18T01:08:38;3.95;;;3.58;;
39256;SDS011;67272;48.066;11.038;2023-02-18T01:11:04;3.93;;;3.53;;
39256;SDS011;67272;48.066;11.038;2023-02-18T01:13:31;3.90;;;3.40;;
39256;SDS011;67272;48.066;11.038;2023-02-18T01:15:57;4.20;;;3.80;;
39256;SDS011;67272;48.066;11.038;2023-02-18T01:18:24;4.10;;;3.70;;
39256;SDS011;67272;48.066;11.038;2023-02-18T01:20:51;4.70;;;4.20;;
39256;SDS011;67272;48.066;11.038;2023-02-18T01:23:17;4.50;;;4.10;;
39256;SDS011;67272;48.066;11.038;2023-02-18T01:25:46;5.30;;;4.20;;
39256;SDS011;67272;48.066;11.038;2023-02-18T01:28:15;4.53;;;4.13;;
39256;SDS011;67272;48.066;11.038;2023-02-18T01:30:44;4.20;;;3.80;;
39256;SDS011;67272;48.066;11.038;2023-02-18T01:33:10;4.70;;;4.17;;
39256;SDS011;67272;48.066;11.038;2023-02-18T01:35:37;4.53;;;3.93;;
39256;SDS011;67272;48.066;11.038;2023-02-18T01:38:07;4.20;;;3.80;;
39256;SDS011;67272;48.066;11.038;2023-02-18T01:40:33;4.40;;;4.00;;
39256;SDS011;67272;48.066;11.038;2023-02-18T01:42:59;3.93;;;3.63;;
39256;SDS011;67272;48.066;11.038;2023-02-18T01:47:54;4.07;;;3.73;;
39256;SDS011;67272;48.066;11.038;2023-02-18T01:50:30;3.40;;;3.10;;
39256;SDS011;67272;48.066;11.038;2023-02-18T01:53:00;3.20;;;2.90;;
39256;SDS011;67272;48.066;11.038;2023-02-18T01:55:27;3.60;;;3.10;;
39256;SDS011;67272;48.066;11.038;2023-02-18T01:57:53;3.40;;;3.10;;
39256;SDS011;67272;48.066;11.038;2023-02-18T02:00:22;3.63;;;3.33;;
39256;SDS011;67272;48.066;11.038;2023-02-18T02:02:49;3.13;;;2.93;;
39256;SDS011;67272;48.066;11.038;2023-02-18T02:05:16;3.10;;;2.80;;
39256;SDS011;67272;48.066;11.038;2023-02-18T02:07:42;3.10;;;2.80;;
39256;SDS011;67272;48.066;11.038;2023-02-18T02:10:12;2.73;;;2.50;;
39256;SDS011;67272;48.066;11.038;2023-02-18T02:25:35;2.50;;;2.30;;
39256;SDS011;67272;48.066;11.038;2023-02-18T02:53:35;2.20;;;1.80;;
39256;SDS011;67272;48.066;11.038;2023-02-18T02:56:02;2.43;;;2.10;;
39256;SDS011;67272;48.066;11.038;2023-02-18T02:58:28;2.40;;;2.20;;
39256;SDS011;67272;48.066;11.038;2023-02-18T03:06:28;2.30;;;2.10;;
39256;SDS011;67272;48.066;11.038;2023-02-18T03:09:15;2.57;;;2.37;;
39256;SDS011;67272;48.066;11.038;2023-02-18T03:12:02;2.43;;;2.23;;
39256;SDS011;67272;48.066;11.038;2023-02-18T03:14:55;2.47;;;2.23;;
39256;SDS011;67272;48.066;11.038;2023-02-18T03:17:22;2.50;;;2.30;;
39256;SDS011;67272;48.066;11.038;2023-02-18T03:20:09;2.60;;;2.33;;
39256;SDS011;67272;48.066;11.038;2023-02-18T03:22:43;2.97;;;2.73;;
39256;SDS011;67272;48.066;11.038;2023-02-18T03:25:25;2.60;;;2.40;;
39256;SDS011;67272;48.066;11.038;2023-02-18T03:27:55;2.40;;;2.30;;
39256;SDS011;67272;48.066;11.038;2023-02-18T03:30:23;2.80;;;2.60;;
39256;SDS011;67272;48.066;11.038;2023-02-18T03:32:51;2.77;;;2.57;;
39256;SDS011;67272;48.066;11.038;2023-02-18T03:35:20;2.70;;;2.50;;
39256;SDS011;67272;48.066;11.038;2023-02-18T03:37:57;2.70;;;2.50;;
39256;SDS011;67272;48.066;11.038;2023-02-18T03:40:26;3.00;;;2.80;;
39256;SDS011;67272;48.066;11.038;2023-02-18T03:42:53;2.80;;;2.60;;
39256;SDS011;67272;48.066;11.038;2023-02-18T03:45:19;2.97;;;2.73;;
39256;SDS011;67272;48.066;11.038;2023-02-18T03:47:45;3.00;;;2.80;;
39256;SDS011;67272;48.066;11.038;2023-02-18T03:50:11;3.77;;;2.60;;
39256;SDS011;67272;48.066;11.038;2023-02-18T03:52:38;2.80;;;2.60;;
39256;SDS011;67272;48.066;11.038;2023-02-18T03:55:04;3.00;;;2.80;;
39256;SDS011;67272;48.066;11.038;2023-02-18T03:57:30;2.67;;;2.47;;
39256;SDS011;67272;48.066;11.038;2023-02-18T03:59:56;3.00;;;2.80;;
39256;SDS011;67272;48.066;11.038;2023-02-18T04:02:22;2.80;;;2.60;;
39256;SDS011;67272;48.066;11.038;2023-02-18T04:04:51;2.63;;;2.43;;
39256;SDS011;67272;48.066;11.038;2023-02-18T04:07:24;2.63;;;2.43;;
39256;SDS011;67272;48.066;11.038;2023-02-18T04:09:50;3.10;;;2.80;;
39256;SDS011;67272;48.066;11.038;2023-02-18T04:12:19;2.90;;;2.70;;
39256;SDS011;67272;48.066;11.038;2023-02-18T04:14:45;2.87;;;2.33;;
39256;SDS011;67272;48.066;11.038;2023-02-18T04:17:11;2.80;;;2.60;;
39256;SDS011;67272;48.066;11.038;2023-02-18T04:19:37;2.90;;;2.70;;
39256;SDS011;67272;48.066;11.038;2023-02-18T04:22:03;2.70;;;2.50;;
39256;SDS011;67272;48.066;11.038;2023-02-18T04:24:29;2.90;;;2.70;;
39256;SDS011;67272;48.066;11.038;2023-02-18T04:26:58;3.00;;;2.40;;
39256;SDS011;67272;48.066;11.038;2023-02-18T04:29:24;2.80;;;2.60;;
39256;SDS011;67272;48.066;11.038;2023-02-18T04:31:50;2.80;;;2.53;;
39256;SDS011;67272;48.066;11.038;2023-02-18T04:34:19;2.77;;;2.57;;
39256;SDS011;67272;48.066;11.038;2023-02-18T04:36:54;2.50;;;2.30;;
39256;SDS011;67272;48.066;11.038;2023-02-18T04:39:21;2.50;;;2.30;;
39256;SDS011;67272;48.066;11.038;2023-02-18T04:41:50;2.50;;;2.30;;
39256;SDS011;67272;48.066;11.038;2023-02-18T04:44:26;2.63;;;2.00;;
39256;SDS011;67272;48.066;11.038;2023-02-18T04:46:57;2.20;;;2.00;;
39256;SDS011;67272;48.066;11.038;2023-02-18T04:49:23;1.73;;;1.63;;
39256;SDS011;67272;48.066;11.038;2023-02-18T04:51:50;1.80;;;1.70;;
39256;SDS011;67272;48.066;11.038;2023-02-18T04:54:19;1.77;;;1.60;;
39256;SDS011;67272;48.066;11.038;2023-02-18T04:56:45;1.57;;;1.40;;
39256;SDS011;67272;48.066;11.038;2023-02-18T04:59:11;1.50;;;1.40;;
39256;SDS011;67272;48.066;11.038;2023-02-18T05:01:37;1.50;;;1.40;;
39256;SDS011;67272;48.066;11.038;2023-02-18T05:04:10;1.57;;;1.47;;
39256;SDS011;67272;48.066;11.038;2023-02-18T05:06:37;1.63;;;1.53;;
39256;SDS011;67272;48.066;11.038;2023-02-18T05:09:10;1.60;;;1.50;;
39256;SDS011;67272;48.066;11.038;2023-02-18T05:11:45;1.70;;;1.60;;
39256;SDS011;67272;48.066;11.038;2023-02-18T05:14:12;1.50;;;1.40;;
39256;SDS011;67272;48.066;11.038;2023-02-18T05:16:38;1.67;;;1.57;;
39256;SDS011;67272;48.066;11.038;2023-02-18T05:19:05;1.40;;;1.30;;
39256;SDS011;67272;48.066;11.038;2023-02-18T05:21:31;1.43;;;1.33;;
39256;SDS011;67272;48.066;11.038;2023-02-18T05:23:57;1.70;;;1.40;;
39256;SDS011;67272;48.066;11.038;2023-02-18T05:26:23;1.37;;;1.27;;
39256;SDS011;67272;48.066;11.038;2023-02-18T05:28:49;1.33;;;1.13;;
39256;SDS011;67272;48.066;11.038;2023-02-18T05:31:15;1.30;;;1.20;;
39256;SDS011;67272;48.066;11.038;2023-02-18T05:33:45;1.43;;;1.33;;
39256;SDS011;67272;48.066;11.038;2023-02-18T05:36:11;1.60;;;1.27;;
39256;SDS011;67272;48.066;11.038;2023-02-18T05:38:37;1.97;;;1.43;;
39256;SDS011;67272;48.066;11.038;2023-02-18T05:41:03;1.40;;;1.30;;
39256;SDS011;67272;48.066;11.038;2023-02-18T05:43:29;1.50;;;1.40;;
39256;SDS011;67272;48.066;11.038;2023-02-18T05:46:15;1.33;;;1.23;;
39256;SDS011;67272;48.066;11.038;2023-02-18T05:48:41;1.50;;;1.40;;
39256;SDS011;67272;48.066;11.038;2023-02-18T05:51:10;2.03;;;1.10;;
39256;SDS011;67272;48.066;11.038;2023-02-18T05:53:37;2.00;;;1.40;;
39256;SDS011;67272;48.066;11.038;2023-02-18T05:56:03;1.40;;;1.23;;
39256;SDS011;67272;48.066;11.038;2023-02-18T05:58:35;1.40;;;1.30;;
39256;SDS011;67272;48.066;11.038;2023-02-18T06:01:01;1.40;;;1.30;;
39256;SDS011;67272;48.066;11.038;2023-02-18T06:03:27;1.37;;;1.27;;
39256;SDS011;67272;48.066;11.038;2023-02-18T06:05:59;1.57;;;1.40;;
39256;SDS011;67272;48.066;11.038;2023-02-18T06:08:25;1.50;;;1.40;;
39256;SDS011;67272;48.066;11.038;2023-02-18T06:10:51;1.43;;;1.33;;
39256;SDS011;67272;48.066;11.038;2023-02-18T06:13:20;1.50;;;1.27;;
39256;SDS011;67272;48.066;11.038;2023-02-18T06:15:49;1.50;;;1.40;;
39256;SDS011;67272;48.066;11.038;2023-02-18T06:18:15;1.43;;;1.33;;
39256;SDS011;67272;48.066;11.038;2023-02-18T06:20:42;1.47;;;1.37;;
39256;SDS011;67272;48.066;11.038;2023-02-18T06:23:14;1.63;;;1.53;;
39256;SDS011;67272;48.066;11.038;2023-02-18T06:25:40;1.60;;;1.50;;
39256;SDS011;67272;48.066;11.038;2023-02-18T06:28:07;1.30;;;1.20;;
39256;SDS011;67272;48.066;11.038;2023-02-18T06:30:33;1.73;;;1.27;;
39256;SDS011;67272;48.066;11.038;2023-02-18T06:32:59;1.50;;;1.40;;
39256;SDS011;67272;48.066;11.038;2023-02-18T06:35:28;1.60;;;1.40;;
39256;SDS011;67272;48.066;11.038;2023-02-18T06:37:54;1.20;;;1.10;;
39256;SDS011;67272;48.066;11.038;2023-02-18T06:40:26;1.20;;;1.10;;
39256;SDS011;67272;48.066;11.038;2023-02-18T06:42:52;1.40;;;1.30;;
39256;SDS011;67272;48.066;11.038;2023-02-18T06:45:24;1.40;;;1.30;;
39256;SDS011;67272;48.066;11.038;2023-02-18T06:47:53;1.40;;;1.30;;
39256;SDS011;67272;48.066;11.038;2023-02-18T06:50:19;1.30;;;1.20;;
39256;SDS011;67272;48.066;11.038;2023-02-18T06:52:48;1.30;;;1.20;;
39256;SDS011;67272;48.066;11.038;2023-02-18T06:55:14;1.20;;;1.10;;
39256;SDS011;67272;48.066;11.038;2023-02-18T06:57:40;1.60;;;1.50;;
39256;SDS011;67272;48.066;11.038;2023-02-18T07:00:09;1.33;;;1.23;;
39256;SDS011;67272;48.066;11.038;2023-02-18T07:02:38;1.40;;;1.30;;
39256;SDS011;67272;48.066;11.038;2023-02-18T07:05:05;1.27;;;1.13;;
39256;SDS011;67272;48.066;11.038;2023-02-18T07:07:31;1.53;;;1.23;;
39256;SDS011;67272;48.066;11.038;2023-02-18T07:09:57;1.63;;;1.23;;
39256;SDS011;67272;48.066;11.038;2023-02-18T07:12:29;1.27;;;1.20;;
39256;SDS011;67272;48.066;11.038;2023-02-18T07:14:58;1.07;;;1.03;;
39256;SDS011;67272;48.066;11.038;2023-02-18T07:17:27;1.77;;;1.27;;
39256;SDS011;67272;48.066;11.038;2023-02-18T07:19:53;1.30;;;1.20;;
39256;SDS011;67272;48.066;11.038;2023-02-18T07:22:20;1.40;;;1.30;;
39256;SDS011;67272;48.066;11.038;2023-02-18T07:24:50;1.30;;;1.20;;
39256;SDS011;67272;48.066;11.038;2023-02-18T07:27:20;1.03;;;1.03;;
39256;SDS011;67272;48.066;11.038;2023-02-18T07:29:46;1.67;;;1.10;;
39256;SDS011;67272;48.066;11.038;2023-02-18T07:32:16;1.30;;;1.00;;
39256;SDS011;67272;48.066;11.038;2023-02-18T07:34:42;1.10;;;1.00;;
39256;SDS011;67272;48.066;11.038;2023-02-18T07:37:08;1.20;;;1.10;;
39256;SDS011;67272;48.066;11.038;2023-02-18T07:39:34;1.00;;;0.90;;
39256;SDS011;67272;48.066;11.038;2023-02-18T07:42:01;0.90;;;0.90;;
39256;SDS011;67272;48.066;11.038;2023-02-18T07:44:27;1.60;;;1.50;;
39256;SDS011;67272;48.066;11.038;2023-02-18T07:46:59;1.13;;;1.10;;
39256;SDS011;67272;48.066;11.038;2023-02-18T07:49:26;1.30;;;1.20;;
39256;SDS011;67272;48.066;11.038;2023-02-18T07:51:52;1.07;;;1.00;;
39256;SDS011;67272;48.066;11.038;2023-02-18T07:54:18;1.00;;;0.90;;
39256;SDS011;67272;48.066;11.038;2023-02-18T07:56:44;2.03;;;1.30;;
39256;SDS011;67272;48.066;11.038;2023-02-18T07:59:11;1.57;;;1.27;;
39256;SDS011;67272;48.066;11.038;2023-02-18T08:01:40;1.20;;;1.10;;
39256;SDS011;67272;48.066;11.038;2023-02-18T08:04:06;1.50;;;1.10;;
39256;SDS011;67272;48.066;11.038;2023-02-18T08:06:34;1.40;;;1.30;;
39256;SDS011;67272;48.066;11.038;2023-02-18T08:09:00;1.50;;;1.27;;
39256;SDS011;67272;48.066;11.038;2023-02-18T08:11:32;1.20;;;1.10;;
39256;SDS011;67272;48.066;11.038;2023-02-18T08:14:02;1.33;;;1.23;;
39256;SDS011;67272;48.066;11.038;2023-02-18T08:16:28;1.57;;;1.40;;
39256;SDS011;67272;48.066;11.038;2023-02-18T08:18:54;1.43;;;1.10;;
39256;SDS011;67272;48.066;11.038;2023-02-18T08:21:21;1.87;;;1.30;;
39256;SDS011;67272;48.066;11.038;2023-02-18T08:23:53;1.40;;;1.30;;
39256;SDS011;67272;48.066;11.038;2023-02-18T08:26:20;1.93;;;1.73;;
39256;SDS011;67272;48.066;11.038;2023-02-18T08:28:46;2.00;;;1.63;;
39256;SDS011;67272;48.066;11.038;2023-02-18T08:31:17;1.40;;;1.30;;
39256;SDS011;67272;48.066;11.038;2023-02-18T08:33:43;1.83;;;1.33;;
39256;SDS011;67272;48.066;11.038;2023-02-18T08:36:10;1.20;;;1.10;;
39256;SDS011;67272;48.066;11.038;2023-02-18T08:38:36;1.77;;;1.33;;
39256;SDS011;67272;48.066;11.038;2023-02-18T08:41:05;1.23;;;1.10;;
39256;SDS011;67272;48.066;11.038;2023-02-18T08:43:35;2.00;;;1.80;;
39256;SDS011;67272;48.066;11.038;2023-02-18T08:46:01;2.40;;;2.20;;
39256;SDS011;67272;48.066;11.038;2023-02-18T08:48:27;2.20;;;2.00;;
39256;SDS011;67272;48.066;11.038;2023-02-18T08:50:53;1.93;;;1.83;;
39256;SDS011;67272;48.066;11.038;2023-02-18T08:53:20;2.00;;;1.70;;
39256;SDS011;67272;48.066;11.038;2023-02-18T08:55:46;1.70;;;1.60;;
39256;SDS011;67272;48.066;11.038;2023-02-18T08:58:12;2.67;;;1.70;;
39256;SDS011;67272;48.066;11.038;2023-02-18T09:00:38;1.70;;;1.60;;
39256;SDS011;67272;48.066;11.038;2023-02-18T09:03:04;1.20;;;1.10;;
39256;SDS011;67272;48.066;11.038;2023-02-18T09:05:31;1.37;;;1.27;;
39256;SDS011;67272;48.066;11.038;2023-02-18T09:07:57;1.55;;;1.45;;
39256;SDS011;67272;48.066;11.038;2023-02-18T09:10:23;1.35;;;1.20;;
39256;SDS011;67272;48.066;11.038;2023-02-18T09:12:49;1.20;;;1.10;;
39256;SDS011;67272;48.066;11.038;2023-02-18T09:15:15;1.83;;;1.50;;
39256;SDS011;67272;48.066;11.038;2023-02-18T09:17:42;1.35;;;1.25;;
39256;SDS011;67272;48.066;11.038;2023-02-18T09:20:08;1.17;;;1.08;;
39256;SDS011;67272;48.066;11.038;2023-02-18T09:22:34;1.50;;;1.30;;
39256;SDS011;67272;48.066;11.038;2023-02-18T09:25:00;1.50;;;1.40;;
39256;SDS011;67272;48.066;11.038;2023-02-18T09:27:26;1.60;;;1.40;;
39256;SDS011;67272;48.066;11.038;2023-02-18T09:29:52;1.95;;;1.30;;
39256;SDS011;67272;48.066;11.038;2023-02-18T09:32:19;3.38;;;1.30;;
39256;SDS011;67272;48.066;11.038;2023-02-18T09:34:45;2.95;;;1.20;;
39256;SDS011;67272;48.066;11.038;2023-02-18T09:37:11;1.48;;;1.20;;
39256;SDS011;67272;48.066;11.038;2023-02-18T09:39:38;2.00;;;1.30;;
39256;SDS011;67272;48.066;11.038;2023-02-18T09:42:06;1.35;;;1.25;;
39256;SDS011;67272;48.066;11.038;2023-02-18T09:47:08;1.50;;;1.30;;
39256;SDS011;67272;48.066;11.038;2023-02-18T09:49:39;1.48;;;1.38;;
39256;SDS011;67272;48.066;11.038;2023-02-18T09:52:10;1.42;;;1.20;;
39256;SDS011;67272;48.066;11.038;2023-02-18T09:54:37;1.33;;;1.23;;
39256;SDS011;67272;48.066;11.038;2023-02-18T09:57:06;1.48;;;1.35;;
39256;SDS011;67272;48.066;11.038;2023-02-18T09:59:40;1.40;;;1.30;;
39256;SDS011;67272;48.066;11.038;2023-02-18T10:02:08;1.30;;;1.20;;
39256;SDS011;67272;48.066;11.038;2023-02-18T10:04:39;1.33;;;1.20;;
39256;SDS011;67272;48.066;11.038;2023-02-18T10:07:07;1.40;;;1.30;;
39256;SDS011;67272;48.066;11.038;2023-02-18T10:09:37;1.30;;;1.20;;
39256;SDS011;67272;48.066;11.038;2023-02-18T10:14:48;1.20;;;1.10;;
39256;SDS011;67272;48.066;11.038;2023-02-18T10:17:22;2.50;;;1.50;;
39256;SDS011;67272;48.066;11.038;2023-02-18T10:19:58;1.42;;;1.33;;
39256;SDS011;67272;48.066;11.038;2023-02-18T10:22:30;1.38;;;1.20;;
39256;SDS011;67272;48.066;11.038;2023-02-18T10:24:57;1.80;;;1.23;;
39256;SDS011;67272;48.066;11.038;2023-02-18T10:27:25;1.45;;;1.35;;
39256;SDS011;67272;48.066;11.038;2023-02-18T10:29:55;2.13;;;1.25;;
39256;SDS011;67272;48.066;11.038;2023-02-18T10:32:22;2.92;;;1.40;;
39256;SDS011;67272;48.066;11.038;2023-02-18T10:37:27;1.30;;;1.20;;
39256;SDS011;67272;48.066;11.038;2023-02-18T10:42:30;1.00;;;1.00;;
39256;SDS011;67272;48.066;11.038;2023-02-18T10:49:58;1.30;;;1.20;;
39256;SDS011;67272;48.066;11.038;2023-02-18T10:52:25;2.13;;;1.10;;
39256;SDS011;67272;48.066;11.038;2023-02-18T10:57:24;1.70;;;1.20;;
39256;SDS011;67272;48.066;11.038;2023-02-18T10:59:55;1.10;;;1.00;;
39256;SDS011;67272;48.066;11.038;2023-02-18T11:02:23;1.50;;;1.00;;
39256;SDS011;67272;48.066;11.038;2023-02-18T11:04:49;1.77;;;1.00;;
39256;SDS011;67272;48.066;11.038;2023-02-18T11:07:20;1.00;;;0.90;;
39256;SDS011;67272;48.066;11.038;2023-02-18T11:09:54;1.20;;;0.95;;
39256;SDS011;67272;48.066;11.038;2023-02-18T11:17:45;2.72;;;1.00;;
39256;SDS011;67272;48.066;11.038;2023-02-18T11:22:47;1.10;;;1.00;;
39256;SDS011;67272;48.066;11.038;2023-02-18T11:28:05;1.15;;;1.05;;
39256;SDS011;67272;48.066;11.038;2023-02-18T11:30:36;0.93;;;0.90;;
39256;SDS011;67272;48.066;11.038;2023-02-18T11:35:33;2.03;;;0.90;;
39256;SDS011;67272;48.066;11.038;2023-02-18T11:38:13;2.10;;;1.20;;
39256;SDS011;67272;48.066;11.038;2023-02-18T11:40:51;2.15;;;0.98;;
39256;SDS011;67272;48.066;11.038;2023-02-18T11:43:18;1.55;;;1.10;;
39256;SDS011;67272;48.066;11.038;2023-02-18T11:45:45;1.23;;;0.90;;
39256;SDS011;67272;48.066;11.038;2023-02-18T11:48:15;1.33;;;1.00;;
39256;SDS011;67272;48.066;11.038;2023-02-18T11:50:42;2.15;;;1.13;;
39256;SDS011;67272;48.066;11.038;2023-02-18T11:56:03;1.70;;;0.90;;
39256;SDS011;67272;48.066;11.038;2023-02-18T11:58:37;1.30;;;1.13;;
39256;SDS011;67272;48.066;11.038;2023-02-18T12:01:05;1.00;;;0.90;;
39256;SDS011;67272;48.066;11.038;2023-02-18T12:06:14;1.52;;;1.00;;
39256;SDS011;67272;48.066;11.038;2023-02-18T12:09:02;1.10;;;1.02;;
39256;SDS011;67272;48.066;11.038;2023-02-18T12:11:37;1.33;;;1.10;;
39256;SDS011;67272;48.066;11.038;2023-02-18T12:14:08;1.17;;;1.08;;
39256;SDS011;67272;48.066;11.038;2023-02-18T12:21:52;2.75;;;1.38;;
39256;SDS011;67272;48.066;11.038;2023-02-18T12:35:06;1.83;;;1.10;;
39256;SDS011;67272;48.066;11.038;2023-02-18T13:01:35;1.92;;;1.13;;
39256;SDS011;67272;48.066;11.038;2023-02-18T13:11:58;1.70;;;1.13;;
39256;SDS011;67272;48.066;11.038;2023-02-18T13:14:37;1.35;;;1.02;;
39256;SDS011;67272;48.066;11.038;2023-02-18T13:17:08;1.30;;;1.20;;
39256;SDS011;67272;48.066;11.038;2023-02-18T13:19:40;1.23;;;1.10;;
39256;SDS011;67272;48.066;11.038;2023-02-18T13:22:09;1.17;;;1.10;;
39256;SDS011;67272;48.066;11.038;2023-02-18T13:24:38;1.42;;;1.30;;
39256;SDS011;67272;48.066;11.038;2023-02-18T13:27:15;1.20;;;1.10;;
39256;SDS011;67272;48.066;11.038;2023-02-18T13:30:18;2.67;;;2.47;;
39256;SDS011;67272;48.066;11.038;2023-02-18T13:40:38;1.13;;;1.10;;
39256;SDS011;67272;48.066;11.038;2023-02-18T13:48:27;2.13;;;1.42;;
39256;SDS011;67272;48.066;11.038;2023-02-18T13:51:03;1.33;;;1.20;;
39256;SDS011;67272;48.066;11.038;2023-02-18T13:53:48;1.38;;;1.27;;
39256;SDS011;67272;48.066;11.038;2023-02-18T13:58:49;1.90;;;1.33;;
39256;SDS011;67272;48.066;11.038;2023-02-18T14:01:36;1.40;;;1.30;;
39256;SDS011;67272;48.066;11.038;2023-02-18T14:09:35;2.72;;;1.30;;
39256;SDS011;67272;48.066;11.038;2023-02-18T14:14:48;2.03;;;1.27;;
39256;SDS011;67272;48.066;11.038;2023-02-18T14:19:59;1.40;;;1.10;;
39256;SDS011;67272;48.066;11.038;2023-02-18T14:22:50;1.92;;;1.30;;
39256;SDS011;67272;48.066;11.038;2023-02-18T14:27:50;3.92;;;1.40;;
39256;SDS011;67272;48.066;11.038;2023-02-18T14:33:01;2.53;;;1.40;;
39256;SDS011;67272;48.066;11.038;2023-02-18T14:35:36;1.20;;;1.10;;
39256;SDS011;67272;48.066;11.038;2023-02-18T14:40:39;1.70;;;1.60;;
39256;SDS011;67272;48.066;11.038;2023-02-18T14:50:57;1.63;;;1.40;;
39256;SDS011;67272;48.066;11.038;2023-02-18T14:53:25;2.13;;;1.20;;
39256;SDS011;67272;48.066;11.038;2023-02-18T14:55:58;1.55;;;1.17;;
39256;SDS011;67272;48.066;11.038;2023-02-18T15:00:56;1.45;;;1.35;;
39256;SDS011;67272;48.066;11.038;2023-02-18T15:03:26;1.40;;;1.30;;
39256;SDS011;67272;48.066;11.038;2023-02-18T15:05:52;1.30;;;1.20;;
39256;SDS011;67272;48.066;11.038;2023-02-18T15:08:19;1.30;;;1.20;;
39256;SDS011;67272;48.066;11.038;2023-02-18T15:15:54;1.60;;;1.25;;
39256;SDS011;67272;48.066;11.038;2023-02-18T15:18:37;1.23;;;1.10;;
39256;SDS011;67272;48.066;11.038;2023-02-18T15:21:04;1.05;;;1.05;;
39256;SDS011;67272;48.066;11.038;2023-02-18T15:23:34;1.30;;;1.02;;
39256;SDS011;67272;48.066;11.038;2023-02-18T15:26:01;1.10;;;1.00;;
39256;SDS011;67272;48.066;11.038;2023-02-18T15:28:28;1.30;;;1.05;;
39256;SDS011;67272;48.066;11.038;2023-02-18T15:30:59;1.20;;;1.10;;
39256;SDS011;67272;48.066;11.038;2023-02-18T15:33:31;1.17;;;0.90;;
39256;SDS011;67272;48.066;11.038;2023-02-18T15:36:04;2.17;;;1.02;;
39256;SDS011;67272;48.066;11.038;2023-02-18T15:38:34;1.23;;;1.10;;
39256;SDS011;67272;48.066;11.038;2023-02-18T15:41:07;1.08;;;0.90;;
39256;SDS011;67272;48.066;11.038;2023-02-18T15:43:36;1.60;;;0.90;;
39256;SDS011;67272;48.066;11.038;2023-02-18T15:46:11;1.00;;;1.00;;
39256;SDS011;67272;48.066;11.038;2023-02-18T15:51:12;0.90;;;0.90;;
39256;SDS011;67272;48.066;11.038;2023-02-18T15:53:40;1.08;;;0.98;;
39256;SDS011;67272;48.066;11.038;2023-02-18T15:56:13;1.00;;;0.90;;
39256;SDS011;67272;48.066;11.038;2023-02-18T15:58:40;1.10;;;1.00;;
39256;SDS011;67272;48.066;11.038;2023-02-18T16:01:22;1.30;;;1.20;;
39256;SDS011;67272;48.066;11.038;2023-02-18T16:03:50;1.80;;;1.00;;
39256;SDS011;67272;48.066;11.038;2023-02-18T16:08:45;1.02;;;0.90;;
39256;SDS011;67272;48.066;11.038;2023-02-18T16:11:33;1.45;;;1.33;;
39256;SDS011;67272;48.066;11.038;2023-02-18T16:14:01;1.45;;;1.20;;
39256;SDS011;67272;48.066;11.038;2023-02-18T16:16:30;1.13;;;1.00;;
39256;SDS011;67272;48.066;11.038;2023-02-18T16:18:57;1.48;;;1.30;;
39256;SDS011;67272;48.066;11.038;2023-02-18T16:21:37;1.70;;;1.27;;
39256;SDS011;67272;48.066;11.038;2023-02-18T16:24:26;1.20;;;1.10;;
39256;SDS011;67272;48.066;11.038;2023-02-18T16:26:51;2.33;;;1.35;;
39256;SDS011;67272;48.066;11.038;2023-02-18T16:29:34;0.93;;;0.90;;
39256;SDS011;67272;48.066;11.038;2023-02-18T16:32:01;1.33;;;1.08;;
39256;SDS011;67272;48.066;11.038;2023-02-18T16:34:30;1.17;;;1.08;;
39256;SDS011;67272;48.066;11.038;2023-02-18T16:37:02;1.20;;;1.10;;
39256;SDS011;67272;48.066;11.038;2023-02-18T16:39:47;0.80;;;0.80;;
39256;SDS011;67272;48.066;11.038;2023-02-18T16:42:15;1.20;;;1.10;;
39256;SDS011;67272;48.066;11.038;2023-02-18T16:44:42;3.35;;;1.20;;
39256;SDS011;67272;48.066;11.038;2023-02-18T16:47:09;1.15;;;1.05;;
39256;SDS011;67272;48.066;11.038;2023-02-18T16:49:40;0.90;;;0.90;;
39256;SDS011;67272;48.066;11.038;2023-02-18T16:52:07;5.70;;;1.92;;
39256;SDS011;67272;48.066;11.038;2023-02-18T16:54:33;1.58;;;1.13;;
39256;SDS011;67272;48.066;11.038;2023-02-18T16:56:59;2.47;;;1.73;;
39256;SDS011;67272;48.066;11.038;2023-02-18T16:59:26;2.95;;;1.98;;
39256;SDS011;67272;48.066;11.038;2023-02-18T17:01:55;1.50;;;1.20;;
39256;SDS011;67272;48.066;11.038;2023-02-18T17:04:21;1.33;;;1.20;;
39256;SDS011;67272;48.066;11.038;2023-02-18T17:06:47;1.40;;;1.10;;
39256;SDS011;67272;48.066;11.038;2023-02-18T17:09:15;1.60;;;1.40;;
39256;SDS011;67272;48.066;11.038;2023-02-18T17:11:42;2.97;;;2.40;;
39256;SDS011;67272;48.066;11.038;2023-02-18T17:14:18;1.60;;;1.50;;
39256;SDS011;67272;48.066;11.038;2023-02-18T17:16:45;1.90;;;1.50;;
39256;SDS011;67272;48.066;11.038;2023-02-18T17:19:12;4.47;;;3.42;;
39256;SDS011;67272;48.066;11.038;2023-02-18T17:21:38;1.67;;;1.25;;
39256;SDS011;67272;48.066;11.038;2023-02-18T17:24:04;1.15;;;1.05;;
39256;SDS011;67272;48.066;11.038;2023-02-18T17:26:31;1.35;;;1.25;;
39256;SDS011;67272;48.066;11.038;2023-02-18T17:29:00;1.42;;;1.30;;
39256;SDS011;67272;48.066;11.038;2023-02-18T17:31:30;2.00;;;1.35;;
39256;SDS011;67272;48.066;11.038;2023-02-18T17:34:01;2.10;;;1.77;;
39256;SDS011;67272;48.066;11.038;2023-02-18T17:36:29;1.60;;;1.40;;
39256;SDS011;67272;48.066;11.038;2023-02-18T17:38:56;1.70;;;1.60;;
39256;SDS011;67272;48.066;11.038;2023-02-18T17:41:25;1.77;;;1.42;;
39256;SDS011;67272;48.066;11.038;2023-02-18T17:43:52;1.73;;;1.48;;
39256;SDS011;67272;48.066;11.038;2023-02-18T17:46:18;1.75;;;1.55;;
39256;SDS011;67272;48.066;11.038;2023-02-18T17:48:45;1.77;;;1.20;;
39256;SDS011;67272;48.066;11.038;2023-02-18T17:51:25;1.20;;;1.20;;